Bucksport, South Carolina
Current Conditions -  °F | °C
As of 10:15 AM on Thursday 18 Dec 2014 (Local Time) from KHYW Reporting Station
Clear Clear  
Wind Chill: 10°   Ceiling: Unl
Heat Index: 10°   Visibility: 7mi
Dew Point:   Wind: 9mph
Humidity: 54%   Direction: 40°NE
Pressure: 30.2"   Gusts: NA
Location:  33.736°N, 79.1183°W
Report Text: KHYW 181515Z AUTO 04008KT 7SM CLR 10/01 A3020 RMK AO2
Loading
Personal Weather Stations






























Interactive Weather Map New forecast layout! Learn more

10-Day Weather Forecast

Advertisements
Track Severe Weather on mobile